TimeCDT,TemperatureF,Dew PointF,Humidity,Sea Level PressureIn,VisibilityMPH,Wind Direction,Wind SpeedMPH,Gust SpeedMPH,PrecipitationIn,Events,Conditions,WindDirDegrees,DateUTC
12:56 AM,69.1,64.9,87,29.93,10.0,East,5.8,-,N/A,,Clear,90,2013-09-27 05:56:00
1:56 AM,68.0,64.0,87,29.92,10.0,ENE,4.6,-,N/A,,Clear,70,2013-09-27 06:56:00
2:56 AM,66.9,63.0,87,29.92,10.0,ENE,4.6,-,N/A,,Clear,70,2013-09-27 07:56:00
3:56 AM,66.0,63.0,90,29.93,10.0,ENE,3.5,-,N/A,,Clear,60,2013-09-27 08:56:00
4:56 AM,66.0,62.1,87,29.94,10.0,NE,4.6,-,N/A,,Clear,50,2013-09-27 09:56:00
5:56 AM,64.9,62.1,90,29.96,10.0,NE,4.6,-,N/A,,Clear,50,2013-09-27 10:56:00
6:56 AM,64.9,62.1,90,29.99,10.0,NE,5.8,-,N/A,,Clear,40,2013-09-27 11:56:00
7:56 AM,68.0,63.0,84,30.01,10.0,ENE,6.9,-,N/A,,Clear,60,2013-09-27 12:56:00
8:56 AM,73.0,64.9,76,30.02,10.0,ENE,5.8,-,N/A,,Clear,70,2013-09-27 13:56:00
9:56 AM,77.0,64.9,66,30.02,10.0,ENE,9.2,-,N/A,,Partly Cloudy,70,2013-09-27 14:56:00
10:56 AM,79.0,63.0,58,30.01,10.0,East,11.5,-,N/A,,Partly Cloudy,80,2013-09-27 15:56:00
11:56 AM,81.0,62.1,52,30.00,10.0,East,8.1,16.1,N/A,,Scattered Clouds,80,2013-09-27 16:56:00
12:56 PM,82.9,62.1,49,29.97,10.0,ENE,8.1,-,N/A,,Partly Cloudy,60,2013-09-27 17:56:00
1:56 PM,84.9,62.1,46,29.96,10.0,NNE,9.2,-,N/A,,Scattered Clouds,30,2013-09-27 18:56:00
2:56 PM,84.9,62.1,46,29.94,10.0,NE,10.4,-,N/A,,Scattered Clouds,50,2013-09-27 19:56:00
3:56 PM,84.9,61.0,44,29.94,10.0,ENE,9.2,-,N/A,,Scattered Clouds,70,2013-09-27 20:56:00
4:56 PM,82.9,60.1,46,29.94,10.0,NE,8.1,-,N/A,,Scattered Clouds,40,2013-09-27 21:56:00
5:56 PM,80.1,60.1,50,29.95,10.0,NE,8.1,-,N/A,,Scattered Clouds,50,2013-09-27 22:56:00
6:56 PM,75.9,61.0,60,29.96,10.0,ENE,4.6,-,N/A,,Scattered Clouds,70,2013-09-27 23:56:00
7:56 PM,73.9,61.0,64,29.98,10.0,NE,4.6,-,N/A,,Scattered Clouds,50,2013-09-28 00:56:00
8:56 PM,72.0,61.0,68,30.00,10.0,ENE,4.6,-,N/A,,Clear,60,2013-09-28 01:56:00
9:56 PM,70.0,60.1,71,30.01,10.0,ENE,5.8,-,N/A,,Clear,60,2013-09-28 02:56:00
10:56 PM,69.1,60.1,73,30.01,10.0,ENE,4.6,-,N/A,,Clear,60,2013-09-28 03:56:00
11:56 PM,66.9,59.0,76,30.01,10.0,ENE,5.8,-,N/A,,Clear,60,2013-09-28 04:56:00